Time;durP1;ratioP1;P1;durP2;ratioP2;P2;SDS_P1;SDS_P2;PMS_P1;PMS_P2;Temp;Humidity;BMP_temperature;BMP_pressure;BME280_temperature;BME280_humidity;BME280_pressure;Samples;Min_cycle;Max_cycle;Signal;HPM_P1;HPM_P2
2022/01/13 00:00:17;;;;;;;86.67;16.00;;;;;;;;;;5092612;28;20176;-71
2022/01/13 00:02:42;;;;;;;85.73;15.67;;;;;;;;;;5086354;28;20207;-70
2022/01/13 00:05:08;;;;;;;56.13;14.93;;;;;;;;;;5085132;28;20172;-70
2022/01/13 00:07:35;;;;;;;56.43;15.00;;;;;;;;;;5089280;28;20183;-71
2022/01/13 00:10:01;;;;;;;83.33;17.50;;;;;;;;;;5084239;28;20180;-70
2022/01/13 00:12:31;;;;;;;70.83;15.67;;;;;;;;;;5095545;28;20192;-71
2022/01/13 00:15:45;;;;;;;76.30;16.47;;;;;;;;;;5086774;28;20187;-71
2022/01/13 00:25:32;;;;;;;69.83;16.47;;;;;;;;;;5039134;28;20826;-71
2022/01/13 00:27:59;;;;;;;64.77;16.00;;;;;;;;;;5072465;28;20220;-72
2022/01/13 00:30:26;;;;;;;89.27;16.67;;;;;;;;;;5071514;28;20184;-71
2022/01/13 00:32:51;;;;;;;73.90;15.00;;;;;;;;;;5071361;28;20215;-70
2022/01/13 00:35:17;;;;;;;82.30;15.90;;;;;;;;;;5069722;28;20541;-70
2022/01/13 00:37:42;;;;;;;79.70;14.53;;;;;;;;;;5072303;28;20818;-70
2022/01/13 00:40:08;;;;;;;64.40;15.00;;;;;;;;;;5068056;28;20418;-70
2022/01/13 00:45:03;;;;;;;62.33;13.93;;;;;;;;;;5038177;28;20255;-70
2022/01/13 00:47:30;;;;;;;51.97;14.70;;;;;;;;;;5039044;28;20185;-67
2022/01/13 00:49:57;;;;;;;58.73;14.93;;;;;;;;;;5021795;28;20213;-68
2022/01/13 00:52:22;;;;;;;47.80;14.00;;;;;;;;;;5034610;28;20205;-68
2022/01/13 00:54:47;;;;;;;72.80;13.40;;;;;;;;;;5058107;28;20685;-68
2022/01/13 00:57:13;;;;;;;71.87;15.53;;;;;;;;;;5060124;28;20200;-68
2022/01/13 00:59:38;;;;;;;89.40;15.80;;;;;;;;;;5049127;28;20671;-70
2022/01/13 01:02:03;;;;;;;72.87;14.00;;;;;;;;;;5058571;28;20740;-71
2022/01/13 01:04:28;;;;;;;67.40;15.13;;;;;;;;;;5054891;28;20604;-68
2022/01/13 01:06:53;;;;;;;67.87;14.37;;;;;;;;;;5055649;28;20790;-69
2022/01/13 01:09:30;;;;;;;66.63;15.23;;;;;;;;;;5054921;28;20180;-69
2022/01/13 01:11:56;;;;;;;101.50;17.93;;;;;;;;;;5056508;28;20672;-69
2022/01/13 01:14:21;;;;;;;58.97;15.33;;;;;;;;;;5053193;28;20205;-69
2022/01/13 01:16:46;;;;;;;97.57;17.83;;;;;;;;;;5056418;28;20592;-69
2022/01/13 01:19:13;;;;;;;71.03;17.10;;;;;;;;;;5058504;28;20173;-68
2022/01/13 01:29:09;;;;;;;80.07;15.80;;;;;;;;;;5057605;28;20208;-69
2022/01/13 01:31:36;;;;;;;83.13;17.83;;;;;;;;;;5055847;28;20646;-69
2022/01/13 01:34:55;;;;;;;77.67;15.77;;;;;;;;;;5038403;28;20942;-69
2022/01/13 01:36:48;;;;;;;100.20;17.23;;;;;;;;;;5039170;28;20212;-69
2022/01/13 01:39:13;;;;;;;52.60;14.50;;;;;;;;;;5056391;28;20539;-69
2022/01/13 01:41:42;;;;;;;84.43;17.40;;;;;;;;;;5065065;28;20181;-67
2022/01/13 01:44:08;;;;;;;126.27;18.73;;;;;;;;;;5075263;28;20212;-67
2022/01/13 01:46:34;;;;;;;83.00;16.00;;;;;;;;;;5039838;28;20272;-68
2022/01/13 01:49:04;;;;;;;91.37;17.80;;;;;;;;;;5061556;28;20238;-69
2022/01/13 01:51:29;;;;;;;64.87;18.20;;;;;;;;;;5053835;28;20180;-68
2022/01/13 01:53:54;;;;;;;89.73;17.47;;;;;;;;;;5053716;28;21802;-68
2022/01/13 01:56:19;;;;;;;93.83;18.73;;;;;;;;;;5055338;28;20322;-67
2022/01/13 01:58:44;;;;;;;95.13;19.97;;;;;;;;;;5056631;28;20188;-69
2022/01/13 02:01:10;;;;;;;82.77;20.77;;;;;;;;;;5053156;28;20183;-70
2022/01/13 02:03:35;;;;;;;72.23;18.17;;;;;;;;;;5041372;28;20266;-69
2022/01/13 02:06:00;;;;;;;79.67;18.43;;;;;;;;;;5059930;28;20202;-68
2022/01/13 02:08:25;;;;;;;99.17;20.43;;;;;;;;;;5054067;28;20192;-68
2022/01/13 02:10:51;;;;;;;111.33;21.43;;;;;;;;;;5054637;28;20211;-69
2022/01/13 02:13:22;;;;;;;135.97;22.30;;;;;;;;;;5056423;28;20812;-69
2022/01/13 02:16:04;;;;;;;90.80;22.57;;;;;;;;;;5054606;28;20613;-69
2022/01/13 02:18:31;;;;;;;94.30;22.70;;;;;;;;;;5056665;28;20259;-69
2022/01/13 02:20:56;;;;;;;144.97;25.97;;;;;;;;;;5059042;28;20183;-69
2022/01/13 02:23:32;;;;;;;132.63;28.57;;;;;;;;;;5053969;28;20196;-68
2022/01/13 02:25:57;;;;;;;125.53;26.20;;;;;;;;;;5056233;28;20184;-70
2022/01/13 02:28:23;;;;;;;128.77;27.00;;;;;;;;;;5054962;28;20201;-68
2022/01/13 02:30:48;;;;;;;124.83;27.07;;;;;;;;;;5048737;28;20577;-68
2022/01/13 02:33:13;;;;;;;130.57;28.27;;;;;;;;;;5055568;28;20249;-69
2022/01/13 02:35:38;;;;;;;127.97;28.47;;;;;;;;;;5052938;28;20283;-69
2022/01/13 02:38:10;;;;;;;119.13;29.97;;;;;;;;;;5054836;28;20634;-68
2022/01/13 02:40:36;;;;;;;120.00;27.40;;;;;;;;;;5053844;28;20896;-68
2022/01/13 02:43:01;;;;;;;114.53;27.50;;;;;;;;;;5054916;28;20240;-69
2022/01/13 02:45:33;;;;;;;116.13;27.40;;;;;;;;;;5053450;28;20189;-68
2022/01/13 02:48:12;;;;;;;112.83;28.80;;;;;;;;;;5059510;28;20241;-69
2022/01/13 02:50:40;;;;;;;124.93;30.20;;;;;;;;;;5035309;28;20203;-68
2022/01/13 02:53:06;;;;;;;158.47;29.73;;;;;;;;;;5036404;28;21016;-69
2022/01/13 02:55:32;;;;;;;86.90;24.27;;;;;;;;;;5050259;28;20721;-68
2022/01/13 02:57:57;;;;;;;99.13;26.33;;;;;;;;;;5037346;28;20204;-69
2022/01/13 03:00:22;;;;;;;141.10;29.10;;;;;;;;;;5055192;28;20187;-70
2022/01/13 03:02:48;;;;;;;131.80;27.27;;;;;;;;;;5056251;28;20262;-69
2022/01/13 03:05:14;;;;;;;159.57;27.30;;;;;;;;;;5061056;28;20359;-69
2022/01/13 03:07:40;;;;;;;137.60;28.30;;;;;;;;;;5058987;28;20204;-67
2022/01/13 03:10:06;;;;;;;124.43;26.87;;;;;;;;;;5055650;28;20181;-68
2022/01/13 03:12:33;;;;;;;129.47;28.30;;;;;;;;;;5058479;28;20241;-69
2022/01/13 03:14:59;;;;;;;125.53;26.57;;;;;;;;;;5060136;28;20287;-68
2022/01/13 03:17:24;;;;;;;142.17;28.40;;;;;;;;;;5055979;28;20212;-69
2022/01/13 03:19:49;;;;;;;131.20;29.33;;;;;;;;;;5054645;28;20180;-69
2022/01/13 03:22:14;;;;;;;126.60;29.07;;;;;;;;;;5055092;28;20192;-69
2022/01/13 03:24:40;;;;;;;172.53;32.50;;;;;;;;;;5056307;28;20201;-70
2022/01/13 03:27:07;;;;;;;118.60;25.53;;;;;;;;;;5065965;28;20547;-69
2022/01/13 03:29:32;;;;;;;141.27;31.13;;;;;;;;;;5057167;28;20824;-69
2022/01/13 03:31:57;;;;;;;142.37;27.90;;;;;;;;;;5040181;28;20189;-68
2022/01/13 03:34:22;;;;;;;94.73;24.87;;;;;;;;;;5055771;28;20215;-69
2022/01/13 03:36:48;;;;;;;112.80;25.67;;;;;;;;;;5059470;28;21154;-69
2022/01/13 03:39:13;;;;;;;157.67;28.03;;;;;;;;;;5039738;28;20184;-68
2022/01/13 03:41:39;;;;;;;73.83;22.67;;;;;;;;;;5057359;28;20176;-69
2022/01/13 03:44:07;;;;;;;113.17;25.20;;;;;;;;;;5057504;28;20277;-69
2022/01/13 03:46:36;;;;;;;135.97;27.13;;;;;;;;;;5058873;28;20273;-69
2022/01/13 03:49:02;;;;;;;115.47;25.97;;;;;;;;;;5058299;28;20672;-70
2022/01/13 03:51:47;;;;;;;113.73;24.47;;;;;;;;;;5057538;28;20270;-69
2022/01/13 03:54:32;;;;;;;83.00;20.87;;;;;;;;;;5055339;28;20213;-69
2022/01/13 03:57:12;;;;;;;124.23;28.00;;;;;;;;;;5054625;28;20219;-69
2022/01/13 03:59:40;;;;;;;105.93;25.50;;;;;;;;;;5057034;28;20188;-70
2022/01/13 04:02:05;;;;;;;142.37;27.63;;;;;;;;;;5058712;28;20177;-69
2022/01/13 04:04:32;;;;;;;95.72;22.95;;;;;;;;;;5061486;28;20212;-69
2022/01/13 04:07:04;;;;;;;100.67;23.67;;;;;;;;;;5054973;28;20224;-68
2022/01/13 04:09:34;;;;;;;138.53;27.87;;;;;;;;;;5052829;28;20268;-69
2022/01/13 04:12:03;;;;;;;89.33;22.87;;;;;;;;;;5057411;28;20192;-69
2022/01/13 04:14:37;;;;;;;81.43;22.13;;;;;;;;;;5056543;28;20349;-68
2022/01/13 04:17:02;;;;;;;165.93;26.20;;;;;;;;;;5054000;28;20221;-69
2022/01/13 04:19:27;;;;;;;129.77;26.03;;;;;;;;;;5055755;28;20558;-69
2022/01/13 04:21:52;;;;;;;109.30;24.30;;;;;;;;;;5056003;28;20184;-69
2022/01/13 04:24:18;;;;;;;104.13;24.30;;;;;;;;;;5058991;28;20230;-69
2022/01/13 04:26:44;;;;;;;117.70;24.73;;;;;;;;;;5060994;28;20913;-69
2022/01/13 04:31:35;;;;;;;104.43;26.23;;;;;;;;;;5071244;28;20251;-69
2022/01/13 04:34:00;;;;;;;144.73;29.37;;;;;;;;;;5064649;28;20208;-69
2022/01/13 04:36:25;;;;;;;78.63;22.57;;;;;;;;;;5057663;28;20328;-69
2022/01/13 04:38:50;;;;;;;149.13;28.83;;;;;;;;;;5062365;28;20296;-69
2022/01/13 04:41:27;;;;;;;110.63;25.17;;;;;;;;;;5062628;28;20176;-69
2022/01/13 04:43:52;;;;;;;116.40;27.00;;;;;;;;;;5057016;28;20204;-69
2022/01/13 04:46:18;;;;;;;122.57;27.87;;;;;;;;;;5060138;28;20181;-69
2022/01/13 04:48:43;;;;;;;165.40;32.23;;;;;;;;;;5061712;28;20676;-69
2022/01/13 04:51:08;;;;;;;116.33;29.10;;;;;;;;;;5058558;28;20238;-70
2022/01/13 04:53:33;;;;;;;86.32;26.15;;;;;;;;;;5059219;28;20683;-69
2022/01/13 04:55:59;;;;;;;127.83;26.03;;;;;;;;;;5056348;28;20501;-70
2022/01/13 04:58:24;;;;;;;144.33;29.77;;;;;;;;;;5040819;28;20284;-69
2022/01/13 05:00:49;;;;;;;170.87;30.87;;;;;;;;;;5055645;28;20268;-69
2022/01/13 05:03:15;;;;;;;108.33;26.47;;;;;;;;;;5057748;28;20197;-70
2022/01/13 05:05:40;;;;;;;171.53;31.13;;;;;;;;;;5059994;28;20630;-69
2022/01/13 05:08:05;;;;;;;95.87;27.13;;;;;;;;;;5057727;28;20651;-70
2022/01/13 05:10:31;;;;;;;163.83;32.07;;;;;;;;;;5054984;28;20263;-69
2022/01/13 05:12:57;;;;;;;105.00;27.30;;;;;;;;;;5042306;28;20309;-68
2022/01/13 05:15:27;;;;;;;125.43;30.53;;;;;;;;;;5055722;28;20311;-69
2022/01/13 05:18:10;;;;;;;124.47;30.43;;;;;;;;;;5056725;28;20263;-69
2022/01/13 05:20:39;;;;;;;88.53;26.43;;;;;;;;;;5061926;28;20172;-69
2022/01/13 05:23:05;;;;;;;88.37;26.47;;;;;;;;;;5056550;28;20204;-69
2022/01/13 05:25:30;;;;;;;111.63;28.73;;;;;;;;;;5058737;28;20282;-69
2022/01/13 05:27:56;;;;;;;92.43;27.97;;;;;;;;;;5043779;28;20246;-67
2022/01/13 05:30:21;;;;;;;120.37;29.27;;;;;;;;;;5058345;28;20181;-67
2022/01/13 05:32:46;;;;;;;99.50;26.10;;;;;;;;;;5044141;28;20184;-69
2022/01/13 05:35:12;;;;;;;68.50;24.43;;;;;;;;;;5058373;28;20185;-68
2022/01/13 05:37:37;;;;;;;116.27;26.43;;;;;;;;;;5057580;28;20209;-69
2022/01/13 05:40:03;;;;;;;99.43;26.43;;;;;;;;;;5039144;28;20271;-68
2022/01/13 05:42:28;;;;;;;82.10;23.67;;;;;;;;;;5057256;28;20169;-69
2022/01/13 05:44:55;;;;;;;87.13;24.40;;;;;;;;;;5058141;28;20186;-68
2022/01/13 05:47:21;;;;;;;72.00;23.40;;;;;;;;;;5059581;28;20204;-69
2022/01/13 05:49:47;;;;;;;110.30;25.80;;;;;;;;;;5056587;28;20203;-69
2022/01/13 05:52:13;;;;;;;110.40;25.27;;;;;;;;;;5057858;28;20185;-70
2022/01/13 05:54:38;;;;;;;108.83;24.17;;;;;;;;;;5060016;28;20348;-69
2022/01/13 05:57:04;;;;;;;92.43;23.00;;;;;;;;;;5062771;28;20203;-68
2022/01/13 05:59:29;;;;;;;131.17;26.33;;;;;;;;;;5056009;28;20249;-69
2022/01/13 06:01:54;;;;;;;83.17;21.97;;;;;;;;;;5048829;28;20181;-69
2022/01/13 06:04:20;;;;;;;108.17;25.13;;;;;;;;;;5059578;28;20188;-69
2022/01/13 06:06:45;;;;;;;108.53;23.23;;;;;;;;;;5053950;28;20218;-69
2022/01/13 06:09:10;;;;;;;77.43;20.50;;;;;;;;;;5058230;28;20189;-69
2022/01/13 06:11:41;;;;;;;89.73;21.73;;;;;;;;;;5060456;28;20185;-69
2022/01/13 06:14:06;;;;;;;70.13;20.80;;;;;;;;;;5052716;28;20293;-67
2022/01/13 06:16:32;;;;;;;68.90;22.23;;;;;;;;;;5062092;28;20292;-69
2022/01/13 06:18:57;;;;;;;74.67;21.10;;;;;;;;;;5060356;28;20655;-69
2022/01/13 06:21:23;;;;;;;88.37;23.00;;;;;;;;;;5059818;28;20260;-68
2022/01/13 06:23:48;;;;;;;73.13;21.10;;;;;;;;;;5060706;28;20670;-69
2022/01/13 06:26:13;;;;;;;69.87;20.93;;;;;;;;;;5054953;28;20176;-69
2022/01/13 06:28:38;;;;;;;57.63;20.73;;;;;;;;;;5057866;28;20238;-70
2022/01/13 06:31:03;;;;;;;65.90;20.40;;;;;;;;;;5058198;28;20191;-69
2022/01/13 06:33:29;;;;;;;61.03;21.03;;;;;;;;;;5060004;28;20196;-69
2022/01/13 06:35:54;;;;;;;103.70;21.83;;;;;;;;;;5058913;28;20242;-68
2022/01/13 06:38:19;;;;;;;68.47;20.73;;;;;;;;;;5057911;28;20435;-70
2022/01/13 06:40:45;;;;;;;123.87;24.93;;;;;;;;;;5056711;28;20277;-69
2022/01/13 06:43:10;;;;;;;72.20;20.00;;;;;;;;;;5073289;23;20657;-70
2022/01/13 06:45:35;;;;;;;104.63;23.30;;;;;;;;;;5109375;27;20636;-71
2022/01/13 06:48:00;;;;;;;67.93;22.80;;;;;;;;;;5115751;27;20194;-71
2022/01/13 06:50:26;;;;;;;91.10;24.27;;;;;;;;;;5095333;27;20433;-70
2022/01/13 06:52:51;;;;;;;59.13;21.93;;;;;;;;;;5114316;27;20218;-71
2022/01/13 06:55:16;;;;;;;75.23;22.70;;;;;;;;;;5108857;27;20199;-70
2022/01/13 06:57:41;;;;;;;69.33;21.60;;;;;;;;;;5111012;28;20198;-71
2022/01/13 07:00:07;;;;;;;98.40;23.67;;;;;;;;;;5109870;28;20608;-68
2022/01/13 07:02:33;;;;;;;75.93;23.17;;;;;;;;;;5113375;28;20647;-71
2022/01/13 07:04:58;;;;;;;63.60;21.43;;;;;;;;;;5109394;28;20201;-69
2022/01/13 07:07:33;;;;;;;73.07;21.37;;;;;;;;;;5111534;28;20179;-72
2022/01/13 07:09:58;;;;;;;61.53;20.03;;;;;;;;;;5111787;28;20182;-70
2022/01/13 07:12:23;;;;;;;65.30;22.27;;;;;;;;;;5110047;28;20183;-70
2022/01/13 07:14:48;;;;;;;75.93;21.00;;;;;;;;;;5109683;28;20206;-70
2022/01/13 07:17:15;;;;;;;69.37;23.07;;;;;;;;;;5111319;28;20239;-70
2022/01/13 07:19:40;;;;;;;78.83;23.10;;;;;;;;;;5108954;28;20236;-69
2022/01/13 07:22:06;;;;;;;51.50;19.00;;;;;;;;;;5109164;28;20640;-69
2022/01/13 07:24:31;;;;;;;57.57;19.73;;;;;;;;;;5111036;28;20202;-71
2022/01/13 07:26:56;;;;;;;68.53;21.80;;;;;;;;;;5109851;28;20186;-70
2022/01/13 07:29:21;;;;;;;69.57;21.17;;;;;;;;;;5092088;28;20206;-69
2022/01/13 07:31:47;;;;;;;77.57;22.87;;;;;;;;;;5111149;28;20179;-71
2022/01/13 07:34:12;;;;;;;95.23;23.53;;;;;;;;;;5113127;28;20277;-69
2022/01/13 07:36:39;;;;;;;64.93;21.23;;;;;;;;;;5112547;28;20419;-70
2022/01/13 07:39:05;;;;;;;73.33;22.47;;;;;;;;;;5095226;28;20552;-71
2022/01/13 07:41:30;;;;;;;56.43;21.37;;;;;;;;;;5110677;28;20262;-69
2022/01/13 07:43:56;;;;;;;75.77;22.50;;;;;;;;;;5110402;28;20836;-69
2022/01/13 07:46:22;;;;;;;75.57;22.13;;;;;;;;;;5110320;28;20171;-69
2022/01/13 07:48:47;;;;;;;87.93;23.17;;;;;;;;;;5114759;27;20636;-70
2022/01/13 07:51:12;;;;;;;73.90;21.60;;;;;;;;;;5114101;27;20176;-71
2022/01/13 07:53:37;;;;;;;69.17;22.33;;;;;;;;;;5112713;27;20198;-69
2022/01/13 07:56:02;;;;;;;81.43;22.63;;;;;;;;;;5114643;27;20313;-70
2022/01/13 07:58:28;;;;;;;63.00;20.80;;;;;;;;;;5115442;27;20175;-69
2022/01/13 08:00:53;;;;;;;74.07;21.00;;;;;;;;;;5115374;27;20557;-69
2022/01/13 08:03:18;;;;;;;66.80;21.07;;;;;;;;;;5122197;27;20499;-71
2022/01/13 08:05:43;;;;;;;84.23;20.83;;;;;;;;;;5115921;27;20206;-70
2022/01/13 08:08:09;;;;;;;77.10;20.10;;;;;;;;;;5103821;27;20626;-69
2022/01/13 08:10:34;;;;;;;68.77;21.33;;;;;;;;;;5115257;27;20242;-70
2022/01/13 08:13:00;;;;;;;68.80;19.43;;;;;;;;;;5117649;27;20175;-71
2022/01/13 08:15:26;;;;;;;62.30;21.13;;;;;;;;;;5113714;27;20186;-71
2022/01/13 08:20:36;;;;;;;69.03;22.63;;;;;;;;;;5115844;27;20243;-71
2022/01/13 08:23:01;;;;;;;70.63;22.43;;;;;;;;;;5115733;27;20558;-71
2022/01/13 08:25:27;;;;;;;84.83;21.37;;;;;;;;;;5114621;27;20525;-71
2022/01/13 08:27:53;;;;;;;56.30;19.53;;;;;;;;;;5116453;27;20183;-72
2022/01/13 08:30:18;;;;;;;69.10;19.87;;;;;;;;;;5113313;27;20193;-71
2022/01/13 08:32:43;;;;;;;62.83;20.87;;;;;;;;;;5116613;27;20175;-69
2022/01/13 08:35:10;;;;;;;64.03;20.77;;;;;;;;;;5129560;27;20610;-71
2022/01/13 08:37:35;;;;;;;67.47;20.07;;;;;;;;;;5129991;27;20194;-72
2022/01/13 08:40:01;;;;;;;69.50;21.17;;;;;;;;;;5130638;27;20255;-70
2022/01/13 08:42:27;;;;;;;71.17;20.67;;;;;;;;;;5125729;27;20187;-71
2022/01/13 08:44:52;;;;;;;53.63;19.20;;;;;;;;;;5131070;27;20322;-71
2022/01/13 08:47:17;;;;;;;72.53;22.33;;;;;;;;;;5124938;27;20194;-70
2022/01/13 08:49:43;;;;;;;59.40;18.77;;;;;;;;;;5115580;27;20659;-70
2022/01/13 08:52:08;;;;;;;57.17;20.30;;;;;;;;;;5114688;27;20183;-70
2022/01/13 08:54:33;;;;;;;68.60;21.00;;;;;;;;;;5115380;27;20722;-71
2022/01/13 08:56:59;;;;;;;72.27;21.20;;;;;;;;;;5115442;27;20684;-72
2022/01/13 08:59:25;;;;;;;80.40;21.70;;;;;;;;;;5113039;27;20183;-71
2022/01/13 09:01:50;;;;;;;67.13;19.93;;;;;;;;;;5117596;27;20536;-71
2022/01/13 09:04:15;;;;;;;70.87;20.60;;;;;;;;;;5116096;27;20191;-71
2022/01/13 09:06:40;;;;;;;59.27;20.53;;;;;;;;;;5113814;27;20205;-70
2022/01/13 09:09:06;;;;;;;67.23;19.80;;;;;;;;;;5100210;27;20179;-69
2022/01/13 09:11:31;;;;;;;69.23;21.23;;;;;;;;;;5088480;27;20256;-69
2022/01/13 09:13:56;;;;;;;63.43;21.33;;;;;;;;;;5114710;27;20626;-69
2022/01/13 09:16:24;;;;;;;68.17;20.23;;;;;;;;;;5117020;27;20209;-69
2022/01/13 09:21:20;;;;;;;49.47;19.03;;;;;;;;;;5112320;27;20853;-69
2022/01/13 09:23:46;;;;;;;55.00;21.60;;;;;;;;;;5113703;27;20194;-69
2022/01/13 09:26:11;;;;;;;50.90;18.97;;;;;;;;;;5112563;27;20171;-72
2022/01/13 09:28:36;;;;;;;58.40;19.13;;;;;;;;;;5113555;27;20180;-69
2022/01/13 09:31:02;;;;;;;60.37;19.30;;;;;;;;;;5112247;27;21721;-70
2022/01/13 09:33:27;;;;;;;47.97;18.43;;;;;;;;;;5113549;27;20726;-70
2022/01/13 09:35:52;;;;;;;70.07;20.90;;;;;;;;;;5114537;27;20209;-69
2022/01/13 09:38:17;;;;;;;69.13;21.70;;;;;;;;;;5111864;27;20178;-69
2022/01/13 09:40:45;;;;;;;51.33;19.70;;;;;;;;;;5111204;27;20179;-69
2022/01/13 09:43:10;;;;;;;58.47;21.07;;;;;;;;;;5112734;27;20266;-72
2022/01/13 09:45:36;;;;;;;62.60;18.60;;;;;;;;;;5113221;27;20617;-69
2022/01/13 09:48:01;;;;;;;57.37;19.23;;;;;;;;;;5119617;27;20171;-70
2022/01/13 09:50:26;;;;;;;52.80;20.10;;;;;;;;;;5113859;27;20636;-69
2022/01/13 09:52:52;;;;;;;63.37;21.67;;;;;;;;;;5112163;27;20183;-71
2022/01/13 09:55:17;;;;;;;69.60;22.87;;;;;;;;;;5114692;27;20214;-70
2022/01/13 09:57:43;;;;;;;57.93;18.80;;;;;;;;;;5113753;27;20198;-70
2022/01/13 10:00:09;;;;;;;82.57;21.37;;;;;;;;;;5108052;27;20203;-70
2022/01/13 10:02:34;;;;;;;75.37;20.67;;;;;;;;;;5111678;27;20712;-70
2022/01/13 10:05:00;;;;;;;62.77;21.97;;;;;;;;;;5113933;27;20274;-70
2022/01/13 10:07:35;;;;;;;62.57;21.73;;;;;;;;;;5111780;27;20187;-70
2022/01/13 10:10:04;;;;;;;69.77;21.67;;;;;;;;;;5111348;27;21610;-70
2022/01/13 10:12:37;;;;;;;85.97;24.03;;;;;;;;;;5105403;27;20191;-70
2022/01/13 10:17:42;;;;;;;73.47;21.70;;;;;;;;;;5109333;27;20206;-70
2022/01/13 10:20:12;;;;;;;84.67;22.20;;;;;;;;;;5108575;27;20183;-70
2022/01/13 10:22:37;;;;;;;72.67;21.63;;;;;;;;;;5107964;27;20187;-70
2022/01/13 10:25:02;;;;;;;103.30;22.40;;;;;;;;;;5109489;27;20210;-70
2022/01/13 10:27:28;;;;;;;49.93;20.37;;;;;;;;;;5111057;27;20294;-71
2022/01/13 10:29:55;;;;;;;84.87;21.10;;;;;;;;;;5099123;27;20193;-70
2022/01/13 10:32:21;;;;;;;80.73;20.63;;;;;;;;;;5107145;27;20182;-70
2022/01/13 10:34:48;;;;;;;77.83;21.27;;;;;;;;;;5090180;27;20206;-70
2022/01/13 10:37:14;;;;;;;65.10;20.27;;;;;;;;;;5112284;27;20256;-70
2022/01/13 10:39:43;;;;;;;75.53;22.13;;;;;;;;;;5094553;27;20860;-69
2022/01/13 10:45:00;;;;;;;68.03;19.53;;;;;;;;;;5070654;28;20223;-70
2022/01/13 10:47:28;;;;;;;73.00;22.13;;;;;;;;;;5112496;27;20182;-70
2022/01/13 10:49:58;;;;;;;51.87;17.50;;;;;;;;;;5109923;28;20178;-72
2022/01/13 10:52:25;;;;;;;63.20;18.20;;;;;;;;;;5111274;28;20617;-72
2022/01/13 10:54:53;;;;;;;66.10;18.77;;;;;;;;;;5108409;28;20553;-69
2022/01/13 10:57:20;;;;;;;56.83;19.80;;;;;;;;;;5110459;28;20199;-69
2022/01/13 10:59:45;;;;;;;59.73;19.33;;;;;;;;;;5107064;28;20181;-70
2022/01/13 11:02:10;;;;;;;49.17;18.70;;;;;;;;;;5112886;28;20179;-70
2022/01/13 11:04:36;;;;;;;49.63;17.10;;;;;;;;;;5113496;28;21323;-70
2022/01/13 11:07:13;;;;;;;69.90;19.90;;;;;;;;;;5111257;28;20193;-69
2022/01/13 11:09:43;;;;;;;47.50;17.03;;;;;;;;;;5110373;28;20186;-70
2022/01/13 11:12:10;;;;;;;63.67;18.63;;;;;;;;;;5107495;28;20278;-70
2022/01/13 11:14:42;;;;;;;42.03;16.30;;;;;;;;;;5091068;28;20205;-70
2022/01/13 11:17:08;;;;;;;58.10;17.33;;;;;;;;;;5109446;28;20199;-70
2022/01/13 11:19:34;;;;;;;46.17;17.90;;;;;;;;;;5109668;28;20186;-70
2022/01/13 11:21:59;;;;;;;44.70;16.37;;;;;;;;;;5108946;28;20179;-70
2022/01/13 11:24:24;;;;;;;44.83;16.87;;;;;;;;;;5109749;27;20759;-70
2022/01/13 11:26:50;;;;;;;45.13;18.40;;;;;;;;;;5110914;27;20179;-70
2022/01/13 11:29:17;;;;;;;50.53;18.07;;;;;;;;;;5112773;27;20202;-70
2022/01/13 11:31:42;;;;;;;53.60;17.83;;;;;;;;;;5111526;27;20183;-69
2022/01/13 11:34:08;;;;;;;47.37;17.47;;;;;;;;;;5117432;27;20211;-69
2022/01/13 11:36:34;;;;;;;38.33;16.97;;;;;;;;;;5112602;27;20481;-70
2022/01/13 11:39:00;;;;;;;37.23;17.17;;;;;;;;;;5113477;27;20214;-69
2022/01/13 11:41:26;;;;;;;39.17;17.40;;;;;;;;;;5112743;27;20183;-70
2022/01/13 11:43:51;;;;;;;39.00;18.60;;;;;;;;;;5091297;27;20706;-70
2022/01/13 11:46:24;;;;;;;37.60;17.67;;;;;;;;;;5111163;27;20540;-70
2022/01/13 11:49:04;;;;;;;54.03;20.00;;;;;;;;;;5098495;27;20223;-69
2022/01/13 11:51:43;;;;;;;36.60;17.57;;;;;;;;;;5117597;27;20213;-71
2022/01/13 11:54:09;;;;;;;48.97;18.50;;;;;;;;;;5110017;27;20191;-70
2022/01/13 11:56:35;;;;;;;47.10;18.20;;;;;;;;;;5109365;27;20199;-71
2022/01/13 11:59:00;;;;;;;41.90;17.10;;;;;;;;;;5113235;27;20596;-70
2022/01/13 12:01:25;;;;;;;37.80;16.57;;;;;;;;;;5113340;27;20175;-70
2022/01/13 12:03:56;;;;;;;37.60;17.50;;;;;;;;;;5113901;27;21138;-70
2022/01/13 12:06:39;;;;;;;43.53;16.60;;;;;;;;;;5111961;27;20269;-70
2022/01/13 12:09:05;;;;;;;38.67;16.93;;;;;;;;;;5112059;27;20650;-70
2022/01/13 12:11:33;;;;;;;35.33;15.40;;;;;;;;;;5092102;27;20176;-71
2022/01/13 12:13:58;;;;;;;41.83;18.00;;;;;;;;;;5108024;27;20194;-71
2022/01/13 12:16:42;;;;;;;38.20;16.93;;;;;;;;;;5114190;27;20664;-71
2022/01/13 12:19:12;;;;;;;38.47;18.10;;;;;;;;;;5116788;27;20175;-69
2022/01/13 12:21:42;;;;;;;37.13;16.73;;;;;;;;;;5111210;27;20310;-69
2022/01/13 12:24:08;;;;;;;43.40;16.70;;;;;;;;;;5099867;27;20195;-71
2022/01/13 12:26:33;;;;;;;45.47;18.20;;;;;;;;;;5112481;27;20548;-71
2022/01/13 12:29:18;;;;;;;46.80;17.40;;;;;;;;;;5111864;27;20648;-70
2022/01/13 12:32:02;;;;;;;35.93;15.70;;;;;;;;;;5113012;27;20265;-69
2022/01/13 12:34:28;;;;;;;33.27;15.03;;;;;;;;;;5113923;27;20477;-69
2022/01/13 12:36:53;;;;;;;41.07;16.70;;;;;;;;;;5111497;27;20249;-71
2022/01/13 12:39:20;;;;;;;37.73;16.07;;;;;;;;;;5091627;27;20186;-71
2022/01/13 12:42:00;;;;;;;39.00;17.73;;;;;;;;;;5114045;27;20191;-69
2022/01/13 12:47:11;;;;;;;37.77;16.10;;;;;;;;;;5114141;27;20254;-69
2022/01/13 12:49:36;;;;;;;44.90;17.90;;;;;;;;;;5109500;27;20655;-70
2022/01/13 12:52:02;;;;;;;41.50;16.73;;;;;;;;;;5112408;27;20207;-68
2022/01/13 12:54:27;;;;;;;42.00;17.10;;;;;;;;;;5108312;27;20207;-68
2022/01/13 12:56:52;;;;;;;47.60;17.20;;;;;;;;;;5111129;27;20210;-69
2022/01/13 12:59:21;;;;;;;43.97;17.90;;;;;;;;;;5110361;27;20174;-70
2022/01/13 13:01:46;;;;;;;34.67;15.83;;;;;;;;;;5125127;27;20767;-68
2022/01/13 13:04:12;;;;;;;42.27;17.87;;;;;;;;;;5125720;27;20707;-69
2022/01/13 13:06:40;;;;;;;38.40;17.07;;;;;;;;;;5114852;27;20258;-69
2022/01/13 13:09:09;;;;;;;47.23;18.17;;;;;;;;;;5093459;27;20208;-69
2022/01/13 13:11:35;;;;;;;42.57;18.10;;;;;;;;;;5108450;27;20263;-68
2022/01/13 13:14:01;;;;;;;34.67;16.77;;;;;;;;;;5109162;27;20211;-70
2022/01/13 13:16:26;;;;;;;36.77;17.40;;;;;;;;;;5112115;27;20689;-69
2022/01/13 13:18:52;;;;;;;38.23;19.17;;;;;;;;;;5111360;27;20195;-69
2022/01/13 13:21:17;;;;;;;34.83;18.00;;;;;;;;;;5092948;27;20687;-69
2022/01/13 13:23:44;;;;;;;43.27;20.17;;;;;;;;;;5108801;27;20186;-68
2022/01/13 13:26:14;;;;;;;41.37;17.73;;;;;;;;;;5091947;27;20175;-68
2022/01/13 13:28:43;;;;;;;41.77;19.53;;;;;;;;;;5108686;27;20588;-69
2022/01/13 13:31:18;;;;;;;40.83;18.83;;;;;;;;;;5109711;27;20258;-68
2022/01/13 13:33:45;;;;;;;41.13;20.53;;;;;;;;;;5109016;27;20181;-68
2022/01/13 13:36:13;;;;;;;42.43;20.93;;;;;;;;;;5111752;27;20191;-68
2022/01/13 13:38:57;;;;;;;43.60;19.30;;;;;;;;;;5111000;27;20187;-69
2022/01/13 13:41:32;;;;;;;42.67;20.63;;;;;;;;;;5111649;27;20186;-68
2022/01/13 13:43:58;;;;;;;46.70;19.37;;;;;;;;;;5111983;27;20285;-70
2022/01/13 13:46:24;;;;;;;39.07;19.43;;;;;;;;;;5111647;27;20597;-70
2022/01/13 13:48:49;;;;;;;38.97;20.37;;;;;;;;;;5117451;27;20190;-70
2022/01/13 13:51:15;;;;;;;38.43;19.10;;;;;;;;;;5091218;27;20511;-70
2022/01/13 13:54:00;;;;;;;45.67;20.03;;;;;;;;;;5108942;27;20676;-70
2022/01/13 13:56:26;;;;;;;47.80;20.47;;;;;;;;;;5108309;27;20754;-69
2022/01/13 13:58:51;;;;;;;35.37;18.23;;;;;;;;;;5108617;27;20186;-70
2022/01/13 14:01:16;;;;;;;36.10;18.03;;;;;;;;;;5109612;27;20175;-69
2022/01/13 14:03:44;;;;;;;36.77;18.47;;;;;;;;;;5096069;27;20182;-69
2022/01/13 14:06:10;;;;;;;41.13;18.73;;;;;;;;;;5113479;27;20175;-70
2022/01/13 14:08:55;;;;;;;44.23;18.93;;;;;;;;;;5109158;27;20675;-69
2022/01/13 14:11:20;;;;;;;41.73;20.23;;;;;;;;;;5110494;27;20523;-70
2022/01/13 14:13:45;;;;;;;37.40;18.93;;;;;;;;;;5109471;27;20175;-69
2022/01/13 14:16:10;;;;;;;41.77;20.20;;;;;;;;;;5108616;27;20301;-70
2022/01/13 14:18:36;;;;;;;44.03;21.50;;;;;;;;;;5095946;27;20563;-70
2022/01/13 14:21:03;;;;;;;38.77;18.30;;;;;;;;;;5108578;27;20779;-70
2022/01/13 14:23:33;;;;;;;35.23;18.03;;;;;;;;;;5089003;27;20186;-69
2022/01/13 14:26:03;;;;;;;38.70;18.90;;;;;;;;;;5111298;27;20183;-70
2022/01/13 14:28:30;;;;;;;44.77;19.43;;;;;;;;;;5094182;27;20600;-71
2022/01/13 14:31:11;;;;;;;44.43;19.97;;;;;;;;;;5109045;27;20183;-70
2022/01/13 14:33:37;;;;;;;48.57;19.20;;;;;;;;;;5108879;27;20210;-71
2022/01/13 14:36:04;;;;;;;44.03;22.00;;;;;;;;;;5110510;27;20198;-70
2022/01/13 14:38:56;;;;;;;46.50;19.83;;;;;;;;;;5109183;27;20297;-70
2022/01/13 14:41:24;;;;;;;44.30;19.80;;;;;;;;;;5088464;28;20187;-69
2022/01/13 14:43:59;;;;;;;44.60;20.63;;;;;;;;;;5091147;27;20286;-69
2022/01/13 14:46:26;;;;;;;45.40;20.47;;;;;;;;;;5091224;28;20178;-70